createdAt,value
2019-04-10T00:00:39.224Z,11.34
2019-04-10T00:03:22.264Z,11.30
2019-04-10T00:05:40.933Z,11.28
2019-04-10T00:08:10.670Z,11.30
2019-04-10T00:10:40.310Z,11.41
2019-04-10T00:13:10.071Z,11.43
2019-04-10T00:15:40.263Z,11.40
2019-04-10T00:18:09.870Z,11.44
2019-04-10T00:20:39.343Z,11.43
2019-04-10T00:23:08.985Z,11.39
2019-04-10T00:25:39.211Z,11.45
2019-04-10T00:28:09.503Z,11.43
2019-04-10T00:30:39.083Z,11.49
2019-04-10T00:33:08.580Z,11.46
2019-04-10T00:35:39.340Z,11.43
2019-04-10T00:38:09.295Z,11.39
2019-04-10T00:40:39.496Z,11.31
2019-04-10T00:43:09.036Z,11.23
2019-04-10T00:45:39.508Z,11.09
2019-04-10T00:48:09.978Z,11.03
2019-04-10T00:50:39.502Z,10.94
2019-04-10T00:53:08.998Z,10.93
2019-04-10T00:55:39.703Z,10.91
2019-04-10T00:58:09.980Z,11.03
2019-04-10T01:00:39.649Z,11.07
2019-04-10T01:03:09.386Z,11.16
2019-04-10T01:05:39.643Z,11.18
2019-04-10T01:08:09.259Z,11.15
2019-04-10T01:10:38.853Z,11.25
2019-04-10T01:13:08.433Z,11.34
2019-04-10T01:15:38.606Z,11.38
2019-04-10T01:18:08.185Z,11.30
2019-04-10T01:20:37.826Z,11.28
2019-04-10T01:23:07.903Z,11.25
2019-04-10T01:25:37.526Z,11.15
2019-04-10T01:28:07.018Z,11.01
2019-04-10T01:30:36.511Z,11.09
2019-04-10T01:33:06.268Z,11.05
2019-04-10T01:35:35.768Z,10.96
2019-04-10T01:38:06.438Z,11.02
2019-04-10T01:40:37.231Z,11.06
2019-04-10T01:43:12.945Z,11.00
2019-04-10T01:45:38.070Z,11.03
2019-04-10T01:48:07.930Z,11.07
2019-04-10T01:50:37.520Z,11.14
2019-04-10T01:53:07.036Z,11.13
2019-04-10T01:55:36.519Z,11.15
2019-04-10T01:58:08.961Z,11.15
2019-04-10T02:00:40.311Z,11.08
2019-04-10T02:03:09.860Z,11.16
2019-04-10T02:05:39.368Z,11.20
2019-04-10T02:08:12.778Z,11.13
2019-04-10T02:10:40.572Z,11.14
2019-04-10T02:13:10.100Z,11.19
2019-04-10T02:15:39.611Z,11.14
2019-04-10T02:18:09.052Z,11.13
2019-04-10T02:20:38.915Z,11.07
2019-04-10T02:23:08.609Z,10.97
2019-04-10T02:25:39.085Z,10.80
2019-04-10T02:28:09.010Z,10.63
2019-04-10T02:30:39.594Z,10.47
2019-04-10T02:33:10.707Z,10.50
2019-04-10T02:35:40.338Z,10.53
2019-04-10T02:38:27.464Z,10.59
2019-04-10T02:40:41.663Z,10.70
2019-04-10T02:43:12.519Z,10.69
2019-04-10T02:45:44.479Z,10.75
2019-04-10T02:48:15.030Z,10.75
2019-04-10T02:50:44.997Z,10.66
2019-04-10T02:53:15.330Z,10.62
2019-04-10T02:55:45.061Z,10.57
2019-04-10T02:58:15.931Z,10.48
2019-04-10T03:00:46.362Z,10.44
2019-04-10T03:03:16.077Z,10.44
2019-04-10T03:05:46.669Z,10.52
2019-04-10T03:08:17.363Z,10.54
2019-04-10T03:10:51.777Z,10.65
2019-04-10T03:13:19.679Z,10.68
2019-04-10T03:15:49.822Z,10.64
2019-04-10T03:18:20.890Z,10.69
2019-04-10T03:20:50.954Z,10.69
2019-04-10T03:23:21.103Z,10.73
2019-04-10T03:25:50.972Z,10.75
2019-04-10T03:28:20.616Z,10.78
2019-04-10T03:30:50.136Z,10.79
2019-04-10T03:33:45.450Z,10.80
2019-04-10T03:36:13.552Z,10.74
2019-04-10T03:38:55.327Z,10.76
2019-04-10T03:41:14.384Z,10.77
2019-04-10T03:43:43.928Z,10.79
2019-04-10T03:46:13.407Z,10.81
2019-04-10T03:48:42.864Z,10.67
2019-04-10T03:51:12.445Z,10.71
2019-04-10T03:53:42.538Z,10.73
2019-04-10T03:56:12.066Z,10.70
2019-04-10T03:58:41.882Z,10.66
2019-04-10T04:01:11.681Z,10.65
2019-04-10T04:03:41.210Z,10.60
2019-04-10T04:06:11.156Z,10.56
2019-04-10T04:08:40.791Z,10.57
2019-04-10T04:11:10.320Z,10.70
2019-04-10T04:13:40.183Z,10.78
2019-04-10T04:16:10.817Z,10.84
2019-04-10T04:18:41.309Z,10.80
2019-04-10T04:21:11.773Z,10.74
2019-04-10T04:23:41.362Z,10.77
2019-04-10T04:26:10.884Z,10.85
2019-04-10T04:28:40.476Z,10.93
2019-04-10T04:31:10.060Z,10.98
2019-04-10T04:33:39.588Z,10.97
2019-04-10T04:36:10.243Z,10.94
2019-04-10T04:38:41.007Z,10.82
2019-04-10T04:41:11.114Z,10.70
2019-04-10T04:43:42.411Z,10.67
2019-04-10T04:46:12.098Z,10.67
2019-04-10T04:48:41.566Z,10.67
2019-04-10T04:51:11.286Z,10.68
2019-04-10T04:53:41.817Z,10.84
2019-04-10T04:56:11.571Z,10.94
2019-04-10T04:58:41.103Z,11.04
2019-04-10T05:01:10.624Z,11.09
2019-04-10T05:03:40.189Z,11.21
2019-04-10T05:06:09.742Z,11.25
2019-04-10T05:08:39.925Z,11.32
2019-04-10T05:11:09.824Z,11.40
2019-04-10T05:13:40.269Z,11.41
2019-04-10T05:16:10.179Z,11.38
2019-04-10T05:18:39.754Z,11.41
2019-04-10T05:21:09.261Z,11.43
2019-04-10T05:23:38.781Z,11.50
2019-04-10T05:26:08.322Z,11.48
2019-04-10T05:28:38.138Z,11.60
2019-04-10T05:31:08.715Z,11.64
2019-04-10T05:33:38.695Z,11.72
2019-04-10T05:36:08.925Z,11.73
2019-04-10T05:38:38.472Z,11.74
2019-04-10T05:41:09.079Z,11.62
2019-04-10T05:43:38.679Z,11.63
2019-04-10T05:46:08.221Z,11.65
2019-04-10T05:48:37.786Z,11.57
2019-04-10T05:51:08.757Z,11.52
2019-04-10T05:53:38.820Z,11.53
2019-04-10T05:56:08.539Z,11.58
2019-04-10T05:58:38.682Z,11.58
2019-04-10T06:01:09.525Z,11.66
2019-04-10T06:03:39.063Z,11.63
2019-04-10T06:06:08.601Z,11.50
2019-04-10T06:08:38.054Z,11.51
2019-04-10T06:11:08.615Z,11.45
2019-04-10T06:13:38.800Z,11.46
2019-04-10T06:16:09.669Z,11.50
2019-04-10T06:18:39.608Z,11.58
2019-04-10T06:21:10.410Z,11.59
2019-04-10T06:23:40.042Z,11.65
2019-04-10T06:26:10.227Z,11.62
2019-04-10T06:28:40.136Z,11.66
2019-04-10T06:31:09.704Z,11.68
2019-04-10T06:33:40.300Z,11.76
2019-04-10T06:36:09.800Z,11.91
2019-04-10T06:38:39.334Z,11.99
2019-04-10T06:41:08.843Z,12.05
2019-04-10T06:43:39.246Z,12.10
2019-04-10T06:46:08.779Z,12.11
2019-04-10T06:48:38.471Z,12.05
2019-04-10T06:51:08.246Z,12.07
2019-04-10T06:53:37.789Z,12.05
2019-04-10T06:56:07.335Z,11.90
2019-04-10T06:58:36.836Z,11.91
2019-04-10T07:01:06.445Z,11.79
2019-04-10T07:03:50.757Z,11.81
2019-04-10T07:06:14.381Z,11.79
2019-04-10T07:08:38.653Z,11.93
2019-04-10T07:11:10.582Z,12.05
2019-04-10T07:13:40.479Z,12.08
2019-04-10T07:16:11.305Z,12.04
2019-04-10T07:18:45.847Z,12.00
2019-04-10T07:21:13.254Z,12.12
2019-04-10T07:23:42.905Z,12.12
2019-04-10T07:26:18.487Z,12.21
2019-04-10T07:28:45.706Z,12.28
2019-04-10T07:31:14.864Z,12.32
2019-04-10T07:33:45.148Z,12.45
2019-04-10T07:36:16.103Z,12.86
2019-04-10T07:38:46.783Z,13.21
2019-04-10T07:41:21.229Z,13.32
2019-04-10T07:43:53.556Z,13.41
2019-04-10T07:46:18.793Z,13.35
2019-04-10T07:48:48.322Z,13.32
2019-04-10T07:51:18.994Z,13.34
2019-04-10T07:53:49.176Z,13.37
2019-04-10T07:56:20.765Z,13.37
2019-04-10T07:58:49.993Z,13.41
2019-04-10T08:01:19.492Z,13.48
2019-04-10T08:03:52.151Z,13.54
2019-04-10T08:06:20.292Z,13.60
2019-04-10T08:08:49.793Z,13.63
2019-04-10T08:11:19.778Z,13.63
2019-04-10T08:13:49.311Z,13.52
2019-04-10T08:16:19.025Z,13.63
2019-04-10T08:18:48.557Z,13.61
2019-04-10T08:21:18.056Z,13.51
2019-04-10T08:23:48.541Z,13.38
2019-04-10T08:26:18.364Z,13.49
2019-04-10T08:28:47.929Z,13.44
2019-04-10T08:31:17.443Z,13.67
2019-04-10T08:33:46.961Z,13.79
2019-04-10T08:36:16.506Z,13.89
2019-04-10T08:38:46.682Z,14.20
2019-04-10T08:41:17.160Z,14.42
2019-04-10T08:43:46.807Z,14.54
2019-04-10T08:46:16.377Z,14.53
2019-04-10T08:48:45.879Z,14.53
2019-04-10T08:51:15.399Z,14.49
2019-04-10T08:53:44.991Z,14.41
2019-04-10T08:56:14.523Z,14.48
2019-04-10T08:58:44.023Z,14.42
2019-04-10T09:01:13.540Z,14.52
2019-04-10T09:03:43.397Z,14.88
2019-04-10T09:06:13.367Z,15.08
2019-04-10T09:08:43.606Z,15.18
2019-04-10T09:11:13.174Z,15.25
2019-04-10T09:13:42.693Z,15.36
2019-04-10T09:16:12.300Z,15.22
2019-04-10T09:18:41.799Z,15.09
2019-04-10T09:21:11.306Z,15.28
2019-04-10T09:23:47.365Z,15.48
2019-04-10T09:26:12.012Z,15.62
2019-04-10T09:28:42.433Z,15.73
2019-04-10T09:31:11.994Z,15.92
2019-04-10T09:33:41.488Z,16.00
2019-04-10T09:36:11.269Z,16.01
2019-04-10T09:38:41.055Z,15.70
2019-04-10T09:41:10.615Z,15.88
2019-04-10T09:43:40.158Z,16.08
2019-04-10T09:46:10.117Z,16.15
2019-04-10T09:48:40.688Z,16.18
2019-04-10T09:51:10.222Z,16.09
2019-04-10T09:53:39.736Z,16.11
2019-04-10T09:56:09.559Z,16.25
2019-04-10T09:58:39.126Z,16.33
2019-04-10T10:01:14.718Z,16.55
2019-04-10T10:03:44.588Z,16.49
2019-04-10T10:06:25.320Z,16.36
2019-04-10T10:08:45.433Z,16.54
2019-04-10T10:11:14.954Z,16.34
2019-04-10T10:13:44.453Z,16.32
2019-04-10T10:16:14.762Z,16.19
2019-04-10T10:18:44.396Z,16.20
2019-04-10T10:21:14.427Z,15.84
2019-04-10T10:23:44.677Z,16.17
2019-04-10T10:26:14.191Z,16.36
2019-04-10T10:28:43.695Z,16.61
2019-04-10T10:31:13.722Z,16.69
2019-04-10T10:33:43.286Z,16.92
2019-04-10T10:36:13.701Z,17.01
2019-04-10T10:38:43.465Z,16.86
2019-04-10T10:41:13.087Z,16.93
2019-04-10T10:43:42.671Z,17.00
2019-04-10T10:46:13.377Z,16.90
2019-04-10T10:48:44.097Z,16.55
2019-04-10T10:51:14.670Z,16.68
2019-04-10T10:53:44.507Z,16.86
2019-04-10T10:56:14.095Z,17.19
2019-04-10T10:58:43.948Z,17.22
2019-04-10T11:01:13.725Z,17.03
2019-04-10T11:03:44.356Z,16.99
2019-04-10T11:06:14.932Z,17.18
2019-04-10T11:08:46.017Z,17.46
2019-04-10T11:11:16.997Z,17.61
2019-04-10T11:13:46.974Z,17.60
2019-04-10T11:16:17.086Z,17.69
2019-04-10T11:18:46.944Z,17.75
2019-04-10T11:21:20.687Z,17.81
2019-04-10T11:23:50.886Z,17.64
2019-04-10T11:26:23.993Z,17.64
2019-04-10T11:28:53.057Z,17.66
2019-04-10T11:31:23.761Z,17.64
2019-04-10T11:33:56.403Z,17.29
2019-04-10T11:36:25.993Z,17.21
2019-04-10T11:39:05.001Z,16.98
2019-04-10T11:41:29.499Z,16.71
2019-04-10T11:43:58.254Z,16.61
2019-04-10T11:46:31.073Z,16.63
2019-04-10T11:49:00.771Z,16.69
2019-04-10T11:51:32.351Z,17.06
2019-04-10T11:54:04.474Z,17.18
2019-04-10T11:56:34.312Z,17.18
2019-04-10T11:59:07.022Z,17.01
2019-04-10T12:01:36.836Z,17.06
2019-04-10T12:04:09.807Z,17.30
2019-04-10T12:06:40.339Z,17.45
2019-04-10T12:09:57.137Z,17.43
2019-04-10T12:11:48.859Z,17.48
2019-04-10T12:14:19.343Z,17.51
2019-04-10T12:16:49.463Z,17.50
2019-04-10T12:19:19.348Z,17.40
2019-04-10T12:21:48.968Z,17.52
2019-04-10T12:24:18.491Z,17.67
2019-04-10T12:26:48.025Z,17.67
2019-04-10T12:29:18.366Z,17.68
2019-04-10T12:31:48.200Z,17.37
2019-04-10T12:34:18.231Z,17.22
2019-04-10T12:36:48.940Z,17.00
2019-04-10T12:39:18.593Z,16.95
2019-04-10T12:41:48.296Z,16.62
2019-04-10T12:44:17.871Z,16.42
2019-04-10T12:46:47.424Z,16.32
2019-04-10T12:49:17.174Z,16.23
2019-04-10T12:51:46.797Z,15.93
2019-04-10T12:54:17.201Z,15.95
2019-04-10T12:56:46.934Z,15.97
2019-04-10T12:59:17.343Z,16.03
2019-04-10T13:01:47.103Z,16.24
2019-04-10T13:04:16.548Z,16.31
2019-04-10T13:06:46.420Z,16.52
2019-04-10T13:09:16.118Z,16.45
2019-04-10T13:11:46.816Z,16.37
2019-04-10T13:14:16.887Z,16.45
2019-04-10T13:16:46.512Z,16.35
2019-04-10T13:19:16.614Z,16.04
2019-04-10T13:21:46.709Z,15.86
2019-04-10T13:24:17.311Z,15.78
2019-04-10T13:26:46.911Z,15.71
2019-04-10T13:29:16.531Z,15.68
2019-04-10T13:31:46.698Z,15.61
2019-04-10T13:34:18.166Z,15.48
2019-04-10T13:36:48.091Z,15.43
2019-04-10T13:39:18.989Z,15.44
2019-04-10T13:41:49.077Z,15.53
2019-04-10T13:44:18.596Z,15.58
2019-04-10T13:46:49.062Z,15.61
2019-04-10T13:49:19.916Z,15.63
2019-04-10T13:51:50.233Z,15.85
2019-04-10T13:54:20.733Z,15.83
2019-04-10T13:56:50.410Z,15.89
2019-04-10T13:59:20.702Z,15.86
2019-04-10T14:01:50.308Z,15.78
2019-04-10T14:04:19.989Z,15.72
2019-04-10T14:06:49.673Z,15.62
2019-04-10T14:09:34.957Z,15.54
2019-04-10T14:11:51.380Z,15.41
2019-04-10T14:14:21.373Z,15.25
2019-04-10T14:16:51.012Z,15.09
2019-04-10T14:19:21.416Z,15.03
2019-04-10T14:21:51.320Z,15.03
2019-04-10T14:24:21.970Z,14.98
2019-04-10T14:27:00.171Z,14.96
2019-04-10T14:29:30.175Z,14.90
2019-04-10T14:32:02.818Z,14.82
2019-04-10T14:34:32.532Z,14.83
2019-04-10T14:37:03.002Z,14.74
2019-04-10T14:39:33.561Z,14.68
2019-04-10T14:42:04.385Z,14.64
2019-04-10T14:44:34.837Z,14.64
2019-04-10T14:47:06.522Z,14.62
2019-04-10T14:49:36.138Z,14.70
2019-04-10T14:52:05.669Z,14.82
2019-04-10T14:54:35.931Z,14.99
2019-04-10T14:57:06.505Z,15.07
2019-04-10T14:59:36.289Z,15.16
2019-04-10T15:02:08.489Z,15.28
2019-04-10T15:04:38.077Z,15.31
2019-04-10T15:07:08.047Z,15.29
2019-04-10T15:09:37.826Z,15.32
2019-04-10T15:12:09.908Z,15.28
2019-04-10T15:14:39.575Z,15.34
2019-04-10T15:17:09.587Z,15.39
2019-04-10T15:19:40.548Z,15.36
2019-04-10T15:22:10.289Z,15.38
2019-04-10T15:24:41.103Z,15.40
2019-04-10T15:27:11.151Z,15.47
2019-04-10T15:29:40.918Z,15.56
2019-04-10T15:32:10.718Z,15.60
2019-04-10T15:34:40.409Z,15.66
2019-04-10T15:37:11.015Z,15.62
2019-04-10T15:39:42.959Z,15.57
2019-04-10T15:42:12.239Z,15.54
2019-04-10T15:44:42.791Z,15.62
2019-04-10T15:47:19.171Z,15.65
2019-04-10T15:49:44.940Z,15.60
2019-04-10T15:52:14.986Z,15.40
2019-04-10T15:54:45.867Z,15.37
2019-04-10T15:57:16.387Z,15.36
2019-04-10T15:59:46.847Z,15.29
2019-04-10T16:02:16.495Z,15.29
2019-04-10T16:04:46.030Z,15.25
2019-04-10T16:07:16.152Z,15.28
2019-04-10T16:09:50.713Z,15.33
2019-04-10T16:12:19.070Z,15.35
2019-04-10T16:14:48.710Z,15.33
2019-04-10T16:17:39.999Z,15.28
2019-04-10T16:20:34.554Z,15.31
2019-04-10T16:23:13.969Z,15.40
2019-04-10T16:25:47.295Z,15.54
2019-04-10T16:28:17.907Z,15.45
2019-04-10T16:30:48.646Z,15.39
2019-04-10T16:33:18.869Z,15.41
2019-04-10T16:35:48.543Z,15.37
2019-04-10T16:38:18.411Z,15.37
2019-04-10T16:40:48.152Z,15.35
2019-04-10T16:43:17.712Z,15.35
2019-04-10T16:45:49.110Z,15.37
2019-04-10T16:48:18.933Z,15.33
2019-04-10T16:50:49.731Z,15.24
2019-04-10T16:53:20.131Z,15.22
2019-04-10T16:55:49.725Z,15.15
2019-04-10T16:58:20.037Z,15.12
2019-04-10T17:00:50.031Z,15.17
2019-04-10T17:03:20.445Z,15.20
2019-04-10T17:05:50.292Z,15.10
2019-04-10T17:08:19.999Z,15.01
2019-04-10T17:10:50.567Z,14.91
2019-04-10T17:13:20.333Z,14.88
2019-04-10T17:15:50.260Z,14.86
2019-04-10T17:18:21.319Z,14.84
2019-04-10T17:20:51.038Z,14.84
2019-04-10T17:23:20.669Z,14.79
2019-04-10T17:25:50.757Z,14.74
2019-04-10T17:28:22.103Z,14.70
2019-04-10T17:30:51.955Z,14.65
2019-04-10T17:33:21.711Z,14.66
2019-04-10T17:35:51.798Z,14.62
2019-04-10T17:38:22.619Z,14.58
2019-04-10T17:40:55.548Z,14.52
2019-04-10T17:43:23.701Z,14.45
2019-04-10T17:45:53.304Z,14.41
2019-04-10T17:48:23.175Z,14.36
2019-04-10T17:50:55.370Z,14.35
2019-04-10T17:53:27.274Z,14.37
2019-04-10T17:56:00.059Z,14.39
2019-04-10T17:58:31.653Z,14.45
2019-04-10T18:01:05.251Z,14.50
2019-04-10T18:03:46.113Z,14.52
2019-04-10T18:06:08.935Z,14.51
2019-04-10T18:08:38.904Z,14.49
2019-04-10T18:11:08.451Z,14.51
2019-04-10T18:13:38.516Z,14.47
2019-04-10T18:16:08.523Z,14.41
2019-04-10T18:18:38.280Z,14.26
2019-04-10T18:21:08.630Z,14.19
2019-04-10T18:23:39.759Z,14.11
2019-04-10T18:26:09.406Z,14.09
2019-04-10T18:28:38.877Z,14.04
2019-04-10T18:31:08.407Z,14.01
2019-04-10T18:33:38.468Z,14.03
2019-04-10T18:36:08.838Z,14.00
2019-04-10T18:38:38.969Z,13.96
2019-04-10T18:41:09.740Z,13.94
2019-04-10T18:43:40.333Z,13.82
2019-04-10T18:46:13.405Z,13.76
2019-04-10T18:48:43.904Z,13.70
2019-04-10T18:51:12.592Z,13.67
2019-04-10T18:53:42.834Z,13.56
2019-04-10T18:56:13.616Z,13.52
2019-04-10T18:58:58.399Z,13.45
2019-04-10T19:01:51.484Z,13.35
2019-04-10T19:04:49.774Z,13.28
2019-04-10T19:07:20.810Z,13.22
2019-04-10T19:09:50.753Z,13.18
2019-04-10T19:12:20.893Z,13.05
2019-04-10T19:14:51.017Z,12.94
2019-04-10T19:17:21.096Z,12.79
2019-04-10T19:19:50.891Z,12.73
2019-04-10T19:22:21.005Z,12.67
2019-04-10T19:24:50.724Z,12.68
2019-04-10T19:27:20.709Z,12.69
2019-04-10T19:29:50.766Z,12.67
2019-04-10T19:32:24.759Z,12.66
2019-04-10T19:34:54.819Z,12.64
2019-04-10T19:37:24.977Z,12.58
2019-04-10T19:39:54.836Z,12.53
2019-04-10T19:42:24.998Z,12.44
2019-04-10T19:44:55.745Z,12.30
2019-04-10T19:47:26.311Z,12.14
2019-04-10T19:49:57.127Z,12.05
2019-04-10T19:52:27.072Z,11.98
2019-04-10T19:54:57.574Z,11.98
2019-04-10T19:57:27.351Z,11.94
2019-04-10T19:59:57.858Z,11.90
2019-04-10T20:02:27.506Z,11.69
2019-04-10T20:04:57.081Z,11.44
2019-04-10T20:07:27.087Z,11.33
2019-04-10T20:09:56.950Z,11.37
2019-04-10T20:12:26.787Z,11.32
2019-04-10T20:14:57.308Z,11.33
2019-04-10T20:17:27.937Z,11.33
2019-04-10T20:19:58.811Z,11.26
2019-04-10T20:22:29.383Z,11.20
2019-04-10T20:24:59.789Z,11.18
2019-04-10T20:27:29.435Z,11.26
2019-04-10T20:29:59.404Z,11.30
2019-04-10T20:32:30.062Z,11.32
2019-04-10T20:35:00.072Z,11.38
2019-04-10T20:37:29.650Z,11.42
2019-04-10T20:39:59.297Z,11.50
2019-04-10T20:42:29.911Z,11.56
2019-04-10T20:44:59.530Z,11.58
2019-04-10T20:47:29.040Z,11.63
2019-04-10T20:49:59.581Z,11.67
2019-04-10T20:52:29.129Z,11.66
2019-04-10T20:54:59.327Z,11.64
2019-04-10T20:57:29.732Z,11.65
2019-04-10T20:59:59.565Z,11.57
2019-04-10T21:02:29.226Z,11.50
2019-04-10T21:05:04.951Z,11.58
2019-04-10T21:07:29.959Z,11.63
2019-04-10T21:10:00.706Z,11.57
2019-04-10T21:12:30.463Z,11.59
2019-04-10T21:14:59.983Z,11.51
2019-04-10T21:17:29.950Z,11.47
2019-04-10T21:20:00.067Z,11.47
2019-04-10T21:22:30.733Z,11.48
2019-04-10T21:25:00.624Z,11.47
2019-04-10T21:27:30.166Z,11.37
2019-04-10T21:30:33.966Z,11.28
2019-04-10T21:33:25.588Z,11.17
2019-04-10T21:35:55.128Z,11.18
2019-04-10T21:38:24.637Z,11.11
2019-04-10T21:40:55.207Z,11.08
2019-04-10T21:43:24.799Z,10.98
2019-04-10T21:45:55.393Z,10.85
2019-04-10T21:48:24.911Z,10.83
2019-04-10T21:50:54.413Z,10.85
2019-04-10T21:53:24.245Z,10.77
2019-04-10T21:55:53.824Z,10.70
2019-04-10T21:58:24.098Z,10.66
2019-04-10T22:01:05.495Z,10.59
2019-04-10T22:03:35.850Z,10.53
2019-04-10T22:06:26.043Z,10.51
2019-04-10T22:09:18.731Z,10.48
2019-04-10T22:11:51.755Z,10.48
2019-04-10T22:14:21.507Z,10.38
2019-04-10T22:16:51.144Z,10.21
2019-04-10T22:19:20.997Z,10.19
2019-04-10T22:21:50.483Z,10.23
2019-04-10T22:24:20.047Z,10.23
2019-04-10T22:26:50.143Z,10.04
2019-04-10T22:29:19.640Z,10.06
2019-04-10T22:31:49.289Z,10.04
2019-04-10T22:34:19.158Z,10.06
2019-04-10T22:36:49.331Z,10.08
2019-04-10T22:39:18.962Z,10.21
2019-04-10T22:41:48.687Z,10.32
2019-04-10T22:44:18.161Z,10.31
2019-04-10T22:46:47.648Z,10.38
2019-04-10T22:49:18.076Z,10.45
2019-04-10T22:51:47.710Z,10.41
2019-04-10T22:54:17.915Z,10.41
2019-04-10T22:56:47.756Z,10.43
2019-04-10T22:59:17.860Z,10.47
2019-04-10T23:01:59.326Z,10.45
2019-04-10T23:04:18.582Z,10.39
2019-04-10T23:06:49.209Z,10.40
2019-04-10T23:09:20.140Z,10.31
2019-04-10T23:11:49.868Z,10.23
2019-04-10T23:14:20.663Z,10.16
2019-04-10T23:16:50.507Z,10.19
2019-04-10T23:19:20.365Z,10.17
2019-04-10T23:21:49.939Z,10.11
2019-04-10T23:24:19.426Z,10.00
2019-04-10T23:26:49.301Z,9.96
2019-04-10T23:29:20.107Z,9.91
2019-04-10T23:31:50.021Z,9.87
2019-04-10T23:34:20.836Z,9.88
2019-04-10T23:36:50.811Z,9.83
2019-04-10T23:39:20.373Z,9.81
2019-04-10T23:41:52.076Z,9.84
2019-04-10T23:44:21.126Z,9.86
2019-04-10T23:46:51.663Z,9.82
2019-04-10T23:49:21.491Z,9.85
2019-04-10T23:51:51.655Z,9.79
2019-04-10T23:54:21.473Z,9.79
2019-04-10T23:56:51.124Z,9.70
2019-04-10T23:59:20.642Z,9.71
